createdAt,value
2022-12-05T00:00:35.135Z,100784.28
2022-12-05T00:03:07.642Z,100790.13
2022-12-05T00:05:42.191Z,100798.19
2022-12-05T00:08:11.269Z,100805.31
2022-12-05T00:10:40.558Z,100815.00
2022-12-05T00:13:10.026Z,100818.41
2022-12-05T00:15:40.689Z,100824.34
2022-12-05T00:18:10.716Z,100824.34
2022-12-05T00:20:50.225Z,100835.69
2022-12-05T00:23:19.303Z,100845.56
2022-12-05T00:25:47.745Z,100845.44
2022-12-05T00:28:17.526Z,100849.19
2022-12-05T00:30:45.979Z,100847.63
2022-12-05T00:33:15.106Z,100855.84
2022-12-05T00:35:44.276Z,100850.53
2022-12-05T00:38:14.107Z,100847.88
2022-12-05T00:40:43.496Z,100842.38
2022-12-05T00:43:12.758Z,100834.13
2022-12-05T00:45:42.528Z,100821.59
2022-12-05T00:48:11.782Z,100822.28
2022-12-05T00:50:41.936Z,100818.28
2022-12-05T00:53:10.961Z,100824.31
2022-12-05T00:55:40.260Z,100820.47
2022-12-05T00:58:09.815Z,100805.66
2022-12-05T01:00:39.091Z,100790.75
2022-12-05T01:03:10.493Z,100784.72
2022-12-05T01:05:43.899Z,100789.81
2022-12-05T01:08:15.756Z,100796.06
2022-12-05T01:11:10.888Z,100803.66
2022-12-05T01:13:49.828Z,100802.31
2022-12-05T01:16:32.381Z,100804.03
2022-12-05T01:19:09.160Z,100784.53
2022-12-05T01:21:40.691Z,100785.03
2022-12-05T01:24:16.564Z,100789.22
2022-12-05T01:26:48.071Z,100795.97
2022-12-05T01:29:23.054Z,100783.19
2022-12-05T01:31:59.196Z,100778.53
2022-12-05T01:34:34.190Z,100772.66
2022-12-05T01:37:08.288Z,100769.78
2022-12-05T01:39:41.240Z,100763.97
2022-12-05T01:42:17.439Z,100763.72
2022-12-05T01:44:49.864Z,100767.00
2022-12-05T01:47:40.412Z,100767.63
2022-12-05T01:50:15.640Z,100763.19
2022-12-05T01:52:51.122Z,100758.09
2022-12-05T01:55:22.935Z,100764.09
2022-12-05T01:57:54.030Z,100767.13
2022-12-05T02:00:30.021Z,100776.00
2022-12-05T02:03:07.665Z,100775.53
2022-12-05T02:05:41.647Z,100779.50
2022-12-05T02:08:16.324Z,100771.81
2022-12-05T02:10:52.158Z,100779.00
2022-12-05T02:13:42.417Z,100787.31
2022-12-05T02:16:32.194Z,100798.25
2022-12-05T02:19:36.474Z,100789.69
2022-12-05T02:22:38.017Z,100795.81
2022-12-05T02:25:36.029Z,100794.69
2022-12-05T02:28:45.097Z,100793.63
2022-12-05T02:31:22.842Z,100795.03
2022-12-05T02:34:08.014Z,100798.09
2022-12-05T02:36:55.116Z,100803.03
2022-12-05T02:39:50.647Z,100810.25
2022-12-05T02:42:36.004Z,100805.56
2022-12-05T02:45:12.155Z,100815.19
2022-12-05T02:47:59.486Z,100816.50
2022-12-05T02:50:36.131Z,100810.09
2022-12-05T02:53:12.789Z,100818.91
2022-12-05T02:55:46.802Z,100824.63
2022-12-05T02:58:24.824Z,100814.31
2022-12-05T03:01:09.138Z,100809.53
2022-12-05T03:03:42.473Z,100798.22
2022-12-05T03:06:21.041Z,100792.94
2022-12-05T03:09:02.674Z,100798.72
2022-12-05T03:11:48.379Z,100786.66
2022-12-05T03:14:28.813Z,100793.75
2022-12-05T03:17:12.496Z,100793.75
2022-12-05T03:19:47.432Z,100783.03
2022-12-05T03:22:24.074Z,100786.44
2022-12-05T03:25:04.209Z,100778.94
2022-12-05T03:28:20.436Z,100779.44
2022-12-05T03:30:59.587Z,100783.44
2022-12-05T03:33:41.921Z,100780.81
2022-12-05T03:36:23.881Z,100780.81
2022-12-05T03:39:11.429Z,100776.00
2022-12-05T03:42:12.261Z,100766.50
2022-12-05T03:44:59.248Z,100771.84
2022-12-05T03:47:53.958Z,100776.22
2022-12-05T03:50:32.657Z,100780.81
2022-12-05T03:53:21.181Z,100778.56
2022-12-05T03:56:05.171Z,100781.22
2022-12-05T03:59:10.918Z,100790.47
2022-12-05T04:01:47.096Z,100790.13
2022-12-05T04:04:31.610Z,100784.66
2022-12-05T04:07:08.112Z,100782.94
2022-12-05T04:09:48.203Z,100780.94
2022-12-05T04:12:40.320Z,100776.22
2022-12-05T04:15:16.089Z,100771.13
2022-12-05T04:18:02.528Z,100759.66
2022-12-05T04:21:02.699Z,100770.94
2022-12-05T04:23:33.864Z,100766.72
2022-12-05T04:26:32.186Z,100754.56
2022-12-05T04:29:14.262Z,100749.94
2022-12-05T04:31:51.839Z,100744.88
2022-12-05T04:34:27.570Z,100742.78
2022-12-05T04:37:06.743Z,100743.50
2022-12-05T04:39:51.744Z,100747.00
2022-12-05T04:42:43.958Z,100751.72
2022-12-05T04:45:20.102Z,100752.19
2022-12-05T04:48:08.866Z,100752.91
2022-12-05T04:50:47.476Z,100748.28
2022-12-05T04:53:24.193Z,100747.53
2022-12-05T04:56:11.972Z,100748.06
2022-12-05T04:58:45.749Z,100752.56
2022-12-05T05:01:36.517Z,100753.97
2022-12-05T05:04:39.789Z,100746.38
2022-12-05T05:07:16.601Z,100751.88
2022-12-05T05:09:51.486Z,100747.84
2022-12-05T05:12:23.777Z,100742.38
2022-12-05T05:15:00.358Z,100743.13
2022-12-05T05:17:32.204Z,100746.47
2022-12-05T05:20:21.895Z,100740.56
2022-12-05T05:23:03.398Z,100741.31
2022-12-05T05:25:35.155Z,100747.44
2022-12-05T05:28:20.887Z,100738.03
2022-12-05T05:30:53.578Z,100739.06
2022-12-05T05:33:45.891Z,100748.09
2022-12-05T05:36:21.538Z,100744.31
2022-12-05T05:38:59.390Z,100745.38
2022-12-05T05:41:36.845Z,100738.72
2022-12-05T05:44:12.442Z,100738.28
2022-12-05T05:46:47.089Z,100739.84
2022-12-05T05:49:16.824Z,100734.25
2022-12-05T05:51:53.110Z,100734.31
2022-12-05T05:54:23.707Z,100733.69
2022-12-05T05:57:06.417Z,100741.91
2022-12-05T05:59:38.725Z,100741.09
2022-12-05T06:02:10.892Z,100735.91
2022-12-05T06:04:43.061Z,100735.63
2022-12-05T06:07:12.979Z,100734.66
2022-12-05T06:09:45.146Z,100732.13
2022-12-05T06:12:16.818Z,100732.03
2022-12-05T06:14:51.353Z,100729.09
2022-12-05T06:17:22.795Z,100741.31
2022-12-05T06:20:11.350Z,100731.53
2022-12-05T06:22:43.681Z,100732.19
2022-12-05T06:25:14.657Z,100727.09
2022-12-05T06:27:46.586Z,100721.31
2022-12-05T06:30:22.417Z,100715.09
2022-12-05T06:32:54.673Z,100723.94
2022-12-05T06:35:32.081Z,100714.56
2022-12-05T06:38:06.340Z,100704.41
2022-12-05T06:40:44.286Z,100715.09
2022-12-05T06:43:16.540Z,100707.09
2022-12-05T06:45:48.340Z,100706.50
2022-12-05T06:48:20.448Z,100705.31
2022-12-05T06:50:55.880Z,100705.59
2022-12-05T06:53:35.111Z,100708.13
2022-12-05T06:56:17.709Z,100701.41
2022-12-05T06:58:55.241Z,100706.84
2022-12-05T07:01:42.616Z,100704.06
2022-12-05T07:04:28.579Z,100710.44
2022-12-05T07:07:06.331Z,100708.94
2022-12-05T07:09:48.343Z,100703.81
2022-12-05T07:12:28.948Z,100705.66
2022-12-05T07:15:10.247Z,100702.84
2022-12-05T07:17:43.184Z,100706.59
2022-12-05T07:20:19.969Z,100711.97
2022-12-05T07:22:50.629Z,100704.25
2022-12-05T07:25:24.060Z,100711.84
2022-12-05T07:28:04.279Z,100719.47
2022-12-05T07:30:36.609Z,100718.06
2022-12-05T07:33:08.592Z,100717.25
2022-12-05T07:35:40.040Z,100719.47
2022-12-05T07:38:10.609Z,100716.19
2022-12-05T07:40:42.097Z,100718.66
2022-12-05T07:43:11.780Z,100725.88
2022-12-05T07:45:42.684Z,100728.50
2022-12-05T07:48:17.060Z,100732.16
2022-12-05T07:50:50.147Z,100726.25
2022-12-05T07:53:20.378Z,100731.88
2022-12-05T07:55:51.231Z,100730.66
2022-12-05T07:58:23.010Z,100736.03
2022-12-05T08:00:55.031Z,100739.59
2022-12-05T08:03:33.430Z,100742.59
2022-12-05T08:06:06.441Z,100732.38
2022-12-05T08:08:40.784Z,100742.47
2022-12-05T08:11:16.588Z,100738.00
2022-12-05T08:13:48.522Z,100742.75
2022-12-05T08:16:23.567Z,100742.88
2022-12-05T08:19:16.713Z,100747.56
2022-12-05T08:21:48.428Z,100749.31
2022-12-05T08:24:22.672Z,100747.19
2022-12-05T08:27:01.977Z,100750.94
2022-12-05T08:29:38.508Z,100752.81
2022-12-05T08:32:10.690Z,100740.81
2022-12-05T08:34:40.777Z,100738.81
2022-12-05T08:37:14.176Z,100750.06
2022-12-05T08:39:44.418Z,100754.00
2022-12-05T08:42:16.048Z,100740.09
2022-12-05T08:44:46.126Z,100747.25
2022-12-05T08:47:16.493Z,100755.03
2022-12-05T08:49:47.148Z,100760.59
2022-12-05T08:52:18.905Z,100757.75
2022-12-05T08:54:48.928Z,100759.81
2022-12-05T08:57:30.769Z,100757.00
2022-12-05T09:00:02.297Z,100758.78
2022-12-05T09:02:36.911Z,100767.16
2022-12-05T09:05:26.985Z,100760.66
2022-12-05T09:08:04.118Z,100758.97
2022-12-05T09:10:36.136Z,100760.28
2022-12-05T09:13:12.009Z,100763.00
2022-12-05T09:15:48.167Z,100764.03
2022-12-05T09:18:20.303Z,100766.19
2022-12-05T09:20:52.424Z,100772.19
2022-12-05T09:23:24.031Z,100772.69
2022-12-05T09:26:03.931Z,100776.34
2022-12-05T09:28:43.227Z,100781.88
2022-12-05T09:31:20.916Z,100786.25
2022-12-05T09:33:53.332Z,100785.59
2022-12-05T09:36:34.681Z,100784.66
2022-12-05T09:39:11.818Z,100780.78
2022-12-05T09:42:15.986Z,100775.66
2022-12-05T09:45:24.173Z,100787.22
2022-12-05T09:48:32.435Z,100782.19
2022-12-05T09:51:04.797Z,100787.22
2022-12-05T09:53:39.901Z,100789.31
2022-12-05T09:56:14.193Z,100792.38
2022-12-05T09:58:48.568Z,100798.09
2022-12-05T10:01:37.207Z,100798.53
2022-12-05T10:04:32.148Z,100800.38
2022-12-05T10:07:16.591Z,100809.84
2022-12-05T10:10:00.898Z,100809.31
2022-12-05T10:12:59.253Z,100809.94
2022-12-05T10:15:45.784Z,100811.75
2022-12-05T10:18:42.503Z,100810.22
2022-12-05T10:21:30.973Z,100817.50
2022-12-05T10:24:15.797Z,100815.94
2022-12-05T10:27:13.821Z,100816.31
2022-12-05T10:30:02.364Z,100818.50
2022-12-05T10:33:03.702Z,100814.84
2022-12-05T10:35:40.583Z,100820.59
2022-12-05T10:38:15.183Z,100826.41
2022-12-05T10:40:51.616Z,100818.13
2022-12-05T10:43:34.734Z,100823.66
2022-12-05T10:46:08.941Z,100827.56
2022-12-05T10:48:43.769Z,100821.84
2022-12-05T10:51:37.264Z,100815.00
2022-12-05T10:54:30.907Z,100818.56
2022-12-05T10:57:03.754Z,100811.78
2022-12-05T10:59:48.466Z,100822.63
2022-12-05T11:02:33.361Z,100820.00
2022-12-05T11:05:05.306Z,100831.78
2022-12-05T11:07:50.122Z,100834.03
2022-12-05T11:10:34.533Z,100845.00
2022-12-05T11:13:27.172Z,100850.16
2022-12-05T11:16:02.496Z,100848.63
2022-12-05T11:18:36.068Z,100848.34
2022-12-05T11:21:19.552Z,100846.31
2022-12-05T11:23:52.005Z,100843.09
2022-12-05T11:26:43.909Z,100858.25
2022-12-05T11:29:36.644Z,100850.81
2022-12-05T11:32:32.652Z,100859.28
2022-12-05T11:35:18.658Z,100850.41
2022-12-05T11:38:02.022Z,100857.69
2022-12-05T11:40:50.272Z,100856.16
2022-12-05T11:43:28.307Z,100858.84
2022-12-05T11:46:03.152Z,100855.13
2022-12-05T11:48:39.819Z,100860.13
2022-12-05T11:51:16.641Z,100861.06
2022-12-05T11:54:41.620Z,100863.59
2022-12-05T11:57:33.904Z,100861.13
2022-12-05T12:00:24.994Z,100871.13
2022-12-05T12:03:58.708Z,100870.63
2022-12-05T12:06:35.989Z,100870.88
2022-12-05T12:09:30.203Z,100867.91
2022-12-05T12:12:25.511Z,100874.53
2022-12-05T12:15:02.640Z,100884.56
2022-12-05T12:17:58.868Z,100888.13
2022-12-05T12:20:58.558Z,100891.63
2022-12-05T12:23:48.175Z,100890.59
2022-12-05T12:26:47.200Z,100892.03
2022-12-05T12:29:33.668Z,100895.13
2022-12-05T12:32:21.653Z,100897.63
2022-12-05T12:35:08.049Z,100902.88
2022-12-05T12:37:59.319Z,100908.63
2022-12-05T12:41:04.046Z,100907.44
2022-12-05T12:43:53.601Z,100906.06
2022-12-05T12:46:48.965Z,100909.38
2022-12-05T12:49:46.550Z,100912.44
2022-12-05T12:52:24.892Z,100911.78
2022-12-05T12:55:09.212Z,100908.09
2022-12-05T12:58:30.890Z,100924.59
2022-12-05T13:01:22.613Z,100921.09
2022-12-05T13:04:03.804Z,100924.66
2022-12-05T13:07:04.655Z,100924.81
2022-12-05T13:09:51.878Z,100918.75
2022-12-05T13:12:38.679Z,100927.44
2022-12-05T13:15:12.227Z,100939.75
2022-12-05T13:17:47.843Z,100932.56
2022-12-05T13:20:24.223Z,100935.56
2022-12-05T13:23:08.019Z,100932.34
2022-12-05T13:25:40.374Z,100935.88
2022-12-05T13:28:31.520Z,100935.25
2022-12-05T13:31:07.233Z,100935.53
2022-12-05T13:33:50.109Z,100942.81
2022-12-05T13:36:43.249Z,100929.59
2022-12-05T13:39:34.324Z,100934.00
2022-12-05T13:42:18.507Z,100940.34
2022-12-05T13:44:54.608Z,100951.22
2022-12-05T13:47:42.236Z,100944.94
2022-12-05T13:50:16.140Z,100947.84
2022-12-05T13:52:51.788Z,100946.50
2022-12-05T13:55:35.237Z,100948.16
2022-12-05T13:58:28.081Z,100946.50
2022-12-05T14:01:40.793Z,100948.16
2022-12-05T14:04:52.583Z,100949.06
2022-12-05T14:08:04.145Z,100953.69
2022-12-05T14:10:36.746Z,100949.25
2022-12-05T14:13:19.873Z,100949.44
2022-12-05T14:15:51.884Z,100946.31
2022-12-05T14:18:50.559Z,100947.63
2022-12-05T14:22:03.149Z,100946.13
2022-12-05T14:25:06.929Z,100953.06
2022-12-05T14:28:03.236Z,100957.31
2022-12-05T14:31:03.898Z,100960.66
2022-12-05T14:33:34.874Z,100967.56
2022-12-05T14:36:16.785Z,100973.78
2022-12-05T14:38:48.931Z,100970.44
2022-12-05T14:41:35.554Z,100971.50
2022-12-05T14:44:20.166Z,100965.03
2022-12-05T14:46:59.425Z,100973.91
2022-12-05T14:50:23.072Z,100969.53
2022-12-05T14:53:24.416Z,100975.44
2022-12-05T14:56:41.305Z,100983.63
2022-12-05T14:59:35.081Z,100985.06
2022-12-05T15:02:12.198Z,100977.09
2022-12-05T15:05:16.889Z,100985.19
2022-12-05T15:07:52.563Z,100982.38
2022-12-05T15:10:39.660Z,100975.06
2022-12-05T15:13:24.732Z,100972.00
2022-12-05T15:16:35.777Z,100978.28
2022-12-05T15:19:29.182Z,100978.19
2022-12-05T15:22:11.247Z,100969.94
2022-12-05T15:24:48.761Z,100975.69
2022-12-05T15:27:32.491Z,100975.13
2022-12-05T15:30:19.080Z,100978.00
2022-12-05T15:32:52.759Z,100969.41
2022-12-05T15:35:36.915Z,100968.19
2022-12-05T15:38:30.660Z,100959.63
2022-12-05T15:41:03.225Z,100954.22
2022-12-05T15:43:39.140Z,100938.75
2022-12-05T15:46:11.591Z,100937.00
2022-12-05T15:48:47.291Z,100926.25
2022-12-05T15:51:16.766Z,100926.31
2022-12-05T15:54:00.839Z,100918.94
2022-12-05T15:56:46.940Z,100918.16
2022-12-05T15:59:23.752Z,100913.53
2022-12-05T16:02:12.686Z,100911.50
2022-12-05T16:04:57.358Z,100907.50
2022-12-05T16:07:33.140Z,100898.66
2022-12-05T16:10:03.856Z,100899.97
2022-12-05T16:12:43.608Z,100899.66
2022-12-05T16:15:32.800Z,100889.44
2022-12-05T16:18:08.391Z,100890.09
2022-12-05T16:20:39.738Z,100882.81
2022-12-05T16:23:28.922Z,100885.41
2022-12-05T16:26:23.624Z,100872.22
2022-12-05T16:29:08.997Z,100862.69
2022-12-05T16:31:44.816Z,100862.34
2022-12-05T16:34:18.701Z,100851.47
2022-12-05T16:36:59.236Z,100835.28
2022-12-05T16:39:34.558Z,100830.88
2022-12-05T16:42:21.800Z,100842.44
2022-12-05T16:45:04.530Z,100838.31
2022-12-05T16:48:11.164Z,100848.22
2022-12-05T16:50:48.375Z,100845.50
2022-12-05T16:53:24.706Z,100847.63
2022-12-05T16:56:02.287Z,100845.25
2022-12-05T16:58:40.366Z,100835.47
2022-12-05T17:01:20.411Z,100822.19
2022-12-05T17:04:09.316Z,100818.47
2022-12-05T17:06:45.312Z,100804.63
2022-12-05T17:09:20.066Z,100809.41
2022-12-05T17:11:55.105Z,100808.59
2022-12-05T17:14:32.659Z,100805.63
2022-12-05T17:17:14.431Z,100811.28
2022-12-05T17:19:49.578Z,100805.09
2022-12-05T17:22:20.490Z,100807.25
2022-12-05T17:24:51.883Z,100803.78
2022-12-05T17:27:28.854Z,100809.28
2022-12-05T17:30:07.803Z,100805.00
2022-12-05T17:32:43.113Z,100798.75
2022-12-05T17:35:24.331Z,100807.84
2022-12-05T17:38:08.980Z,100798.66
2022-12-05T17:40:42.704Z,100803.84
2022-12-05T17:43:26.091Z,100811.09
2022-12-05T17:46:09.213Z,100823.28
2022-12-05T17:48:43.850Z,100823.44
2022-12-05T17:51:18.658Z,100809.91
2022-12-05T17:53:59.375Z,100800.91
2022-12-05T17:56:38.990Z,100799.34
2022-12-05T17:59:10.807Z,100787.34
2022-12-05T18:01:50.445Z,100786.75
2022-12-05T18:04:31.207Z,100781.47
2022-12-05T18:07:25.288Z,100779.25
2022-12-05T18:10:18.831Z,100783.94
2022-12-05T18:13:16.192Z,100786.53
2022-12-05T18:15:52.890Z,100779.78
2022-12-05T18:18:31.898Z,100776.03
2022-12-05T18:21:35.599Z,100767.00
2022-12-05T18:24:07.113Z,100762.63
2022-12-05T18:26:47.498Z,100759.50
2022-12-05T18:29:17.302Z,100766.19
2022-12-05T18:31:51.316Z,100761.41
2022-12-05T18:34:22.405Z,100761.75
2022-12-05T18:36:59.407Z,100761.41
2022-12-05T18:39:32.912Z,100762.66
2022-12-05T18:42:16.453Z,100763.59
2022-12-05T18:44:50.723Z,100757.59
2022-12-05T18:47:25.117Z,100757.59
2022-12-05T18:50:19.001Z,100753.50
2022-12-05T18:52:53.189Z,100750.91
2022-12-05T18:56:04.764Z,100741.91
2022-12-05T18:58:35.829Z,100747.50
2022-12-05T19:01:09.399Z,100746.09
2022-12-05T19:03:44.301Z,100748.56
2022-12-05T19:06:31.579Z,100755.28
2022-12-05T19:09:44.688Z,100749.53
2022-12-05T19:12:24.686Z,100751.44
2022-12-05T19:15:12.124Z,100751.44
2022-12-05T19:17:44.574Z,100758.34
2022-12-05T19:20:18.859Z,100758.56
2022-12-05T19:23:02.606Z,100758.97
2022-12-05T19:25:43.857Z,100741.75
2022-12-05T19:28:17.285Z,100726.94
2022-12-05T19:30:48.998Z,100728.94
2022-12-05T19:33:47.184Z,100729.41
2022-12-05T19:36:32.885Z,100731.31
2022-12-05T19:39:36.625Z,100729.00
2022-12-05T19:42:11.180Z,100741.38
2022-12-05T19:44:44.137Z,100743.16
2022-12-05T19:47:16.722Z,100739.00
2022-12-05T19:49:49.298Z,100740.41
2022-12-05T19:52:33.690Z,100740.41
2022-12-05T19:55:06.339Z,100737.41
2022-12-05T19:57:40.730Z,100729.31
2022-12-05T20:00:20.597Z,100724.34
2022-12-05T20:02:52.506Z,100719.19
2022-12-05T20:05:39.173Z,100717.25
2022-12-05T20:08:16.955Z,100723.59
2022-12-05T20:10:54.870Z,100718.91
2022-12-05T20:13:50.208Z,100723.13
2022-12-05T20:16:35.796Z,100715.22
2022-12-05T20:19:14.841Z,100718.03
2022-12-05T20:21:47.617Z,100719.22
2022-12-05T20:24:20.528Z,100724.91
2022-12-05T20:27:02.234Z,100728.03
2022-12-05T20:29:35.252Z,100733.13
2022-12-05T20:32:11.530Z,100742.72
2022-12-05T20:34:47.385Z,100750.13
2022-12-05T20:37:18.170Z,100747.06
2022-12-05T20:40:04.731Z,100772.38
2022-12-05T20:42:43.495Z,100773.31
2022-12-05T20:45:18.464Z,100759.47
2022-12-05T20:48:07.577Z,100750.34
2022-12-05T20:50:49.633Z,100751.16
2022-12-05T20:53:33.359Z,100741.13
2022-12-05T20:56:11.390Z,100745.69
2022-12-05T20:58:52.972Z,100738.19
2022-12-05T21:01:39.040Z,100749.19
2022-12-05T21:04:13.493Z,100752.03
2022-12-05T21:06:52.773Z,100755.69
2022-12-05T21:09:34.566Z,100752.72
2022-12-05T21:12:09.340Z,100756.22
2022-12-05T21:14:46.181Z,100754.22
2022-12-05T21:17:20.608Z,100754.06
2022-12-05T21:19:57.422Z,100767.25
2022-12-05T21:22:36.566Z,100763.59
2022-12-05T21:25:15.603Z,100774.59
2022-12-05T21:27:47.362Z,100777.63
2022-12-05T21:30:20.520Z,100769.75
2022-12-05T21:33:07.271Z,100778.94
2022-12-05T21:35:37.749Z,100781.47
2022-12-05T21:38:10.906Z,100778.03
2022-12-05T21:40:46.546Z,100779.41
2022-12-05T21:43:18.672Z,100778.38
2022-12-05T21:46:07.652Z,100775.91
2022-12-05T21:48:40.761Z,100782.78
2022-12-05T21:51:15.264Z,100783.56
2022-12-05T21:53:50.700Z,100791.22
2022-12-05T21:56:24.710Z,100796.34
2022-12-05T21:59:04.901Z,100799.84
2022-12-05T22:01:38.850Z,100810.75
2022-12-05T22:04:11.232Z,100802.38
2022-12-05T22:06:48.603Z,100807.03
2022-12-05T22:09:21.341Z,100815.00
2022-12-05T22:11:52.949Z,100814.09
2022-12-05T22:14:27.759Z,100821.91
2022-12-05T22:17:05.696Z,100823.38
2022-12-05T22:19:39.344Z,100820.84
2022-12-05T22:22:15.163Z,100820.59
2022-12-05T22:24:47.962Z,100815.56
2022-12-05T22:27:33.262Z,100810.72
2022-12-05T22:30:11.426Z,100814.13
2022-12-05T22:32:47.882Z,100809.72
2022-12-05T22:35:40.360Z,100817.06
2022-12-05T22:38:15.882Z,100811.22
2022-12-05T22:40:48.373Z,100812.91
2022-12-05T22:43:24.272Z,100808.78
2022-12-05T22:46:20.812Z,100805.19
2022-12-05T22:49:06.874Z,100820.09
2022-12-05T22:51:44.263Z,100816.81
2022-12-05T22:54:16.140Z,100808.38
2022-12-05T22:56:49.269Z,100818.06
2022-12-05T22:59:20.950Z,100823.19
2022-12-05T23:02:01.001Z,100820.22
2022-12-05T23:04:36.114Z,100823.75
2022-12-05T23:07:15.183Z,100816.19
2022-12-05T23:09:47.746Z,100814.84
2022-12-05T23:12:19.422Z,100816.78
2022-12-05T23:14:50.700Z,100816.69
2022-12-05T23:17:41.313Z,100820.44
2022-12-05T23:20:19.250Z,100815.41
2022-12-05T23:22:55.314Z,100821.06
2022-12-05T23:25:32.739Z,100812.63
2022-12-05T23:28:08.467Z,100816.81
2022-12-05T23:30:45.093Z,100816.97
2022-12-05T23:33:19.368Z,100819.34
2022-12-05T23:36:02.339Z,100822.84
2022-12-05T23:38:39.685Z,100811.78
2022-12-05T23:41:16.862Z,100812.22
2022-12-05T23:43:50.385Z,100813.75
2022-12-05T23:46:25.156Z,100811.06
2022-12-05T23:49:03.159Z,100815.69
2022-12-05T23:51:36.669Z,100810.16
2022-12-05T23:54:19.257Z,100823.28
2022-12-05T23:56:51.115Z,100829.31
2022-12-05T23:59:26.561Z,100834.41
